createdAt,value
2019-05-25T00:00:07.861Z,11.60
2019-05-25T00:02:36.699Z,11.25
2019-05-25T00:05:09.198Z,11.35
2019-05-25T00:07:37.953Z,11.57
2019-05-25T00:10:08.409Z,11.18
2019-05-25T00:12:37.242Z,10.65
2019-05-25T00:15:07.188Z,10.75
2019-05-25T00:17:36.005Z,10.93
2019-05-25T00:20:05.963Z,10.08
2019-05-25T00:22:34.843Z,9.93
2019-05-25T00:25:04.123Z,9.18
2019-05-25T00:27:33.033Z,10.90
2019-05-25T00:30:01.887Z,10.25
2019-05-25T00:32:30.757Z,10.55
2019-05-25T00:34:59.605Z,9.28
2019-05-25T00:37:28.432Z,8.55
2019-05-25T00:39:57.286Z,8.03
2019-05-25T00:42:26.136Z,8.28
2019-05-25T00:44:54.959Z,7.40
2019-05-25T00:47:23.826Z,8.75
2019-05-25T00:49:52.710Z,7.75
2019-05-25T00:52:21.566Z,7.12
2019-05-25T00:54:50.383Z,7.20
2019-05-25T00:57:19.134Z,6.30
2019-05-25T00:59:47.984Z,6.37
2019-05-25T01:02:16.829Z,6.17
2019-05-25T01:04:45.679Z,6.30
2019-05-25T01:07:14.502Z,6.92
2019-05-25T01:09:43.341Z,6.35
2019-05-25T01:12:12.206Z,5.90
2019-05-25T01:14:41.070Z,6.12
2019-05-25T01:17:09.903Z,6.20
2019-05-25T01:19:38.744Z,6.80
2019-05-25T01:22:07.625Z,6.95
2019-05-25T01:24:44.291Z,7.87
2019-05-25T01:27:06.907Z,8.15
2019-05-25T01:29:35.878Z,8.20
2019-05-25T01:32:04.720Z,7.67
2019-05-25T01:34:33.481Z,8.18
2019-05-25T01:37:02.242Z,8.73
2019-05-25T01:39:31.090Z,8.00
2019-05-25T01:41:59.922Z,7.87
2019-05-25T01:44:28.765Z,7.58
2019-05-25T01:46:57.561Z,9.00
2019-05-25T01:49:26.368Z,7.78
2019-05-25T01:51:55.198Z,8.73
2019-05-25T01:54:26.694Z,8.38
2019-05-25T01:56:55.541Z,8.35
2019-05-25T01:59:27.099Z,8.08
2019-05-25T02:01:55.893Z,8.43
2019-05-25T02:04:24.707Z,8.75
2019-05-25T02:06:53.562Z,8.43
2019-05-25T02:09:22.976Z,7.83
2019-05-25T02:11:51.774Z,7.55
2019-05-25T02:14:20.595Z,8.00
2019-05-25T02:16:49.457Z,7.03
2019-05-25T02:19:18.283Z,6.75
2019-05-25T02:21:47.132Z,7.78
2019-05-25T02:24:15.894Z,7.17
2019-05-25T02:26:44.799Z,8.20
2019-05-25T02:29:13.622Z,7.90
2019-05-25T02:31:42.656Z,7.47
2019-05-25T02:34:11.482Z,7.17
2019-05-25T02:36:40.315Z,7.75
2019-05-25T02:39:09.486Z,6.85
2019-05-25T02:41:38.315Z,7.08
2019-05-25T02:44:07.223Z,7.42
2019-05-25T02:46:36.039Z,8.70
2019-05-25T02:49:05.627Z,8.15
2019-05-25T02:51:34.492Z,8.58
2019-05-25T02:54:03.324Z,8.05
2019-05-25T02:56:32.172Z,7.20
2019-05-25T02:59:01.003Z,8.18
2019-05-25T03:01:30.729Z,9.45
2019-05-25T03:03:59.550Z,8.03
2019-05-25T03:06:29.224Z,8.83
2019-05-25T03:08:58.149Z,9.33
2019-05-25T03:11:28.548Z,8.80
2019-05-25T03:13:58.364Z,8.78
2019-05-25T03:16:27.143Z,8.65
2019-05-25T03:18:56.000Z,9.00
2019-05-25T03:21:24.830Z,9.30
2019-05-25T03:23:53.666Z,9.08
2019-05-25T03:26:22.497Z,9.08
2019-05-25T03:28:51.336Z,8.98
2019-05-25T03:31:20.106Z,9.68
2019-05-25T03:33:48.866Z,10.58
2019-05-25T03:36:17.627Z,11.60
2019-05-25T03:38:46.469Z,10.53
2019-05-25T03:41:15.206Z,11.00
2019-05-25T03:43:44.045Z,12.78
2019-05-25T03:46:12.912Z,13.05
2019-05-25T03:48:41.680Z,13.88
2019-05-25T03:51:10.514Z,14.43
2019-05-25T03:53:39.368Z,13.93
2019-05-25T03:56:08.210Z,13.72
2019-05-25T03:58:36.966Z,14.83
2019-05-25T04:01:05.813Z,15.03
2019-05-25T04:03:34.649Z,16.30
2019-05-25T04:06:03.480Z,16.80
2019-05-25T04:08:32.315Z,14.15
2019-05-25T04:11:01.160Z,13.55
2019-05-25T04:13:29.989Z,13.40
2019-05-25T04:16:00.445Z,13.95
2019-05-25T04:18:30.107Z,12.45
2019-05-25T04:20:58.955Z,14.07
2019-05-25T04:23:27.727Z,14.40
2019-05-25T04:25:56.614Z,13.48
2019-05-25T04:28:25.460Z,12.50
2019-05-25T04:30:54.325Z,11.48
2019-05-25T04:33:23.145Z,11.18
2019-05-25T04:35:52.014Z,11.12
2019-05-25T04:38:20.868Z,10.68
2019-05-25T04:40:49.720Z,11.73
2019-05-25T04:43:18.629Z,11.43
2019-05-25T04:45:47.418Z,10.28
2019-05-25T04:48:16.182Z,11.70
2019-05-25T04:50:45.077Z,11.53
2019-05-25T04:53:13.896Z,11.53
2019-05-25T04:55:42.727Z,12.10
2019-05-25T04:58:11.563Z,10.90
2019-05-25T05:00:40.408Z,12.43
2019-05-25T05:03:09.247Z,11.43
2019-05-25T05:05:38.175Z,13.18
2019-05-25T05:08:07.000Z,12.03
2019-05-25T05:10:35.856Z,11.38
2019-05-25T05:13:04.702Z,11.93
2019-05-25T05:15:33.485Z,13.40
2019-05-25T05:18:02.368Z,12.07
2019-05-25T05:20:31.207Z,13.78
2019-05-25T05:23:00.110Z,14.07
2019-05-25T05:25:28.951Z,14.78
2019-05-25T05:27:57.817Z,12.15
2019-05-25T05:30:32.030Z,13.58
2019-05-25T05:33:00.842Z,12.33
2019-05-25T05:35:31.247Z,12.58
2019-05-25T05:38:02.279Z,12.00
2019-05-25T05:40:31.761Z,13.65
2019-05-25T05:43:02.677Z,12.13
2019-05-25T05:45:33.700Z,13.20
2019-05-25T05:48:03.965Z,13.50
2019-05-25T05:50:34.904Z,12.73
2019-05-25T05:53:04.025Z,13.30
2019-05-25T05:55:33.207Z,12.13
2019-05-25T05:58:02.547Z,12.63
2019-05-25T06:00:31.473Z,12.98
2019-05-25T06:03:00.421Z,12.35
2019-05-25T06:05:29.311Z,12.70
2019-05-25T06:07:58.072Z,12.50
2019-05-25T06:10:26.902Z,12.37
2019-05-25T06:12:55.735Z,57.35
2019-05-25T06:15:24.571Z,11.03
2019-05-25T06:17:53.429Z,12.98
2019-05-25T06:20:22.201Z,10.38
2019-05-25T06:22:51.137Z,9.00
2019-05-25T06:25:19.878Z,10.72
2019-05-25T06:27:48.735Z,9.03
2019-05-25T06:30:18.114Z,9.18
2019-05-25T06:32:47.031Z,7.92
2019-05-25T06:35:17.071Z,6.92
2019-05-25T06:37:45.946Z,8.30
2019-05-25T06:40:14.736Z,6.65
2019-05-25T06:42:43.679Z,7.12
2019-05-25T06:45:12.531Z,6.80
2019-05-25T06:47:41.315Z,6.62
2019-05-25T06:50:10.961Z,6.22
2019-05-25T06:52:41.278Z,7.03
2019-05-25T06:55:12.028Z,6.35
2019-05-25T06:57:43.599Z,6.35
2019-05-25T07:00:11.685Z,6.17
2019-05-25T07:02:40.530Z,6.58
2019-05-25T07:05:10.615Z,7.00
2019-05-25T07:07:39.439Z,6.53
2019-05-25T07:10:08.695Z,6.40
2019-05-25T07:12:37.536Z,6.42
2019-05-25T07:15:08.107Z,6.45
2019-05-25T07:17:36.977Z,6.92
2019-05-25T07:20:08.148Z,6.25
2019-05-25T07:22:36.976Z,7.20
2019-05-25T07:25:09.176Z,6.83
2019-05-25T07:27:38.140Z,5.95
2019-05-25T07:30:08.022Z,7.40
2019-05-25T07:32:36.837Z,7.30
2019-05-25T07:35:08.365Z,7.60
2019-05-25T07:37:37.311Z,8.13
2019-05-25T07:40:07.451Z,7.47
2019-05-25T07:42:36.534Z,7.45
2019-05-25T07:45:08.740Z,7.60
2019-05-25T07:47:37.555Z,6.90
2019-05-25T07:50:13.415Z,7.08
2019-05-25T07:52:42.260Z,5.90
2019-05-25T07:55:13.455Z,6.37
2019-05-25T07:57:42.290Z,6.15
2019-05-25T08:00:11.095Z,6.20
2019-05-25T08:02:39.954Z,5.72
2019-05-25T08:05:08.910Z,5.03
2019-05-25T08:07:37.833Z,5.53
2019-05-25T08:10:07.368Z,4.92
2019-05-25T08:12:36.212Z,4.80
2019-05-25T08:15:06.352Z,4.20
2019-05-25T08:17:38.226Z,5.15
2019-05-25T08:20:07.868Z,4.75
2019-05-25T08:22:36.643Z,5.90
2019-05-25T08:25:09.175Z,4.62
2019-05-25T08:27:38.049Z,4.70
2019-05-25T08:30:07.661Z,4.87
2019-05-25T08:32:36.564Z,4.35
2019-05-25T08:35:06.762Z,4.25
2019-05-25T08:37:35.540Z,5.92
2019-05-25T08:40:06.472Z,3.90
2019-05-25T08:42:35.307Z,3.92
2019-05-25T08:45:06.370Z,4.10
2019-05-25T08:47:39.070Z,4.17
2019-05-25T08:50:12.166Z,3.42
2019-05-25T08:52:43.667Z,2.83
2019-05-25T08:55:12.704Z,3.22
2019-05-25T08:57:41.758Z,2.90
2019-05-25T09:00:11.235Z,2.33
2019-05-25T09:02:41.145Z,3.35
2019-05-25T09:05:10.106Z,4.03
2019-05-25T09:07:40.599Z,4.33
2019-05-25T09:10:10.965Z,4.35
2019-05-25T09:12:39.906Z,4.90
2019-05-25T09:15:10.311Z,5.00
2019-05-25T09:17:39.160Z,4.53
2019-05-25T09:20:09.523Z,3.60
2019-05-25T09:22:38.412Z,2.90
2019-05-25T09:25:10.133Z,3.37
2019-05-25T09:27:39.275Z,2.50
2019-05-25T09:30:10.156Z,2.50
2019-05-25T09:32:39.344Z,1.90
2019-05-25T09:35:11.821Z,2.00
2019-05-25T09:37:40.656Z,2.00
2019-05-25T09:40:11.259Z,2.05
2019-05-25T09:42:40.262Z,1.57
2019-05-25T09:45:14.053Z,1.85
2019-05-25T09:47:41.443Z,1.42
2019-05-25T09:50:11.053Z,1.62
2019-05-25T09:52:41.391Z,1.42
2019-05-25T09:55:10.904Z,1.30
2019-05-25T09:57:41.773Z,0.90
2019-05-25T10:00:12.312Z,1.00
2019-05-25T10:02:43.873Z,1.60
2019-05-25T10:05:14.002Z,0.93
2019-05-25T10:07:42.823Z,0.85
2019-05-25T10:10:12.454Z,1.10
2019-05-25T10:12:41.384Z,0.88
2019-05-25T10:15:10.491Z,0.80
2019-05-25T10:17:39.469Z,1.15
2019-05-25T10:20:10.862Z,0.80
2019-05-25T10:22:39.904Z,1.47
2019-05-25T10:25:13.299Z,1.10
2019-05-25T10:27:42.243Z,1.42
2019-05-25T10:30:11.626Z,1.00
2019-05-25T10:32:40.569Z,0.70
2019-05-25T10:35:09.641Z,0.50
2019-05-25T10:37:41.527Z,0.45
2019-05-25T10:40:10.890Z,1.15
2019-05-25T10:42:40.009Z,0.68
2019-05-25T10:45:11.943Z,1.35
2019-05-25T10:47:43.236Z,1.02
2019-05-25T10:50:12.979Z,0.90
2019-05-25T10:52:41.789Z,0.78
2019-05-25T10:55:11.440Z,0.93
2019-05-25T10:57:43.402Z,0.82
2019-05-25T11:00:12.841Z,0.53
2019-05-25T11:02:41.704Z,0.47
2019-05-25T11:05:12.520Z,0.40
2019-05-25T11:07:41.276Z,0.78
2019-05-25T11:10:10.523Z,0.95
2019-05-25T11:12:39.437Z,0.70
2019-05-25T11:15:09.935Z,0.50
2019-05-25T11:17:39.132Z,0.40
2019-05-25T11:20:12.493Z,0.93
2019-05-25T11:22:41.308Z,0.50
2019-05-25T11:25:10.636Z,1.02
2019-05-25T11:27:39.449Z,0.78
2019-05-25T11:30:10.231Z,0.90
2019-05-25T11:32:39.407Z,1.22
2019-05-25T11:35:08.808Z,1.12
2019-05-25T11:37:37.635Z,2.40
2019-05-25T11:40:10.342Z,1.10
2019-05-25T11:42:39.260Z,1.40
2019-05-25T11:45:10.073Z,1.07
2019-05-25T11:47:38.900Z,0.90
2019-05-25T11:50:08.968Z,0.62
2019-05-25T11:52:38.014Z,1.05
2019-05-25T11:55:08.264Z,1.27
2019-05-25T11:57:37.092Z,0.72
2019-05-25T12:00:23.728Z,0.85
2019-05-25T12:02:40.566Z,0.90
2019-05-25T12:05:09.925Z,0.72
2019-05-25T12:07:38.753Z,0.82
2019-05-25T12:10:08.104Z,0.60
2019-05-25T12:12:36.938Z,1.10
2019-05-25T12:15:07.575Z,0.80
2019-05-25T12:17:36.419Z,0.90
2019-05-25T12:20:06.083Z,0.90
2019-05-25T12:22:34.949Z,0.85
2019-05-25T12:25:05.223Z,0.78
2019-05-25T12:27:34.069Z,0.80
2019-05-25T12:30:04.407Z,0.78
2019-05-25T12:32:33.309Z,0.75
2019-05-25T12:35:02.123Z,0.45
2019-05-25T12:37:31.085Z,0.50
2019-05-25T12:39:59.841Z,0.90
2019-05-25T12:42:28.856Z,0.60
2019-05-25T12:44:57.651Z,0.62
2019-05-25T12:47:26.511Z,0.60
2019-05-25T12:49:55.331Z,1.20
2019-05-25T12:52:24.172Z,0.75
2019-05-25T12:54:52.941Z,0.72
2019-05-25T12:57:24.248Z,0.60
2019-05-25T12:59:53.397Z,0.47
2019-05-25T13:02:23.695Z,0.57
2019-05-25T13:04:54.231Z,0.90
2019-05-25T13:07:23.078Z,0.40
2019-05-25T13:09:53.277Z,0.70
2019-05-25T13:12:22.218Z,0.65
2019-05-25T13:14:51.049Z,0.95
2019-05-25T13:17:19.897Z,0.90
2019-05-25T13:19:48.737Z,0.85
2019-05-25T13:22:19.789Z,0.40
2019-05-25T13:24:50.245Z,0.62
2019-05-25T13:27:19.091Z,0.68
2019-05-25T13:29:50.623Z,0.60
2019-05-25T13:32:19.690Z,1.00
2019-05-25T13:34:49.769Z,1.20
2019-05-25T13:37:18.599Z,1.42
2019-05-25T13:39:47.429Z,1.10
2019-05-25T13:42:16.247Z,1.00
2019-05-25T13:44:45.146Z,0.50
2019-05-25T13:47:13.971Z,0.82
2019-05-25T13:49:42.705Z,0.60
2019-05-25T13:52:11.480Z,0.82
2019-05-25T13:54:40.312Z,1.47
2019-05-25T13:57:09.207Z,0.95
2019-05-25T13:59:38.029Z,1.30
2019-05-25T14:02:06.928Z,0.90
2019-05-25T14:04:35.754Z,1.12
2019-05-25T14:07:04.609Z,1.62
2019-05-25T14:09:33.479Z,0.90
2019-05-25T14:12:02.302Z,1.72
2019-05-25T14:14:31.152Z,1.92
2019-05-25T14:17:00.018Z,1.77
2019-05-25T14:19:28.790Z,1.07
2019-05-25T14:21:58.327Z,1.62
2019-05-25T14:24:27.381Z,0.90
2019-05-25T14:26:58.049Z,1.05
2019-05-25T14:29:27.416Z,0.90
2019-05-25T14:31:56.235Z,0.93
2019-05-25T14:34:28.814Z,1.10
2019-05-25T14:39:29.184Z,1.10
2019-05-25T14:41:57.957Z,0.80
2019-05-25T14:44:28.244Z,1.10
2019-05-25T14:46:59.782Z,1.47
2019-05-25T14:49:31.952Z,1.22
2019-05-25T14:52:03.999Z,1.10
2019-05-25T14:54:35.192Z,1.25
2019-05-25T14:57:03.790Z,1.15
2019-05-25T14:59:32.649Z,1.50
2019-05-25T15:02:05.186Z,1.25
2019-05-25T15:07:02.546Z,1.67
2019-05-25T15:09:31.418Z,1.45
2019-05-25T15:12:01.513Z,1.25
2019-05-25T15:14:30.241Z,1.07
2019-05-25T15:17:00.715Z,1.30
2019-05-25T15:19:29.594Z,1.20
2019-05-25T15:22:01.689Z,1.40
2019-05-25T15:24:31.186Z,1.20
2019-05-25T15:27:00.130Z,1.92
2019-05-25T15:29:29.126Z,1.32
2019-05-25T15:31:58.032Z,1.47
2019-05-25T15:34:26.830Z,1.40
2019-05-25T15:36:55.614Z,1.20
2019-05-25T15:39:24.462Z,1.10
2019-05-25T15:41:53.309Z,1.17
2019-05-25T15:44:22.168Z,1.47
2019-05-25T15:46:51.033Z,1.02
2019-05-25T15:49:21.338Z,1.35
2019-05-25T15:51:50.182Z,1.10
2019-05-25T15:54:18.994Z,1.22
2019-05-25T15:56:47.762Z,1.25
2019-05-25T15:59:16.588Z,1.37
2019-05-25T16:01:45.356Z,1.42
2019-05-25T16:04:14.212Z,1.60
2019-05-25T16:06:42.985Z,1.55
2019-05-25T16:09:11.964Z,1.90
2019-05-25T16:11:40.667Z,1.30
2019-05-25T16:14:09.520Z,1.45
2019-05-25T16:16:41.232Z,1.70
2019-05-25T16:19:10.334Z,1.57
2019-05-25T16:21:39.331Z,1.22
2019-05-25T16:24:10.787Z,1.85
2019-05-25T16:26:45.980Z,1.60
2019-05-25T16:29:13.123Z,1.52
2019-05-25T16:31:41.947Z,1.77
2019-05-25T16:34:10.800Z,1.50
2019-05-25T16:36:41.250Z,2.30
2019-05-25T16:39:10.520Z,1.70
2019-05-25T16:41:41.121Z,1.22
2019-05-25T16:44:10.042Z,1.30
2019-05-25T16:46:38.799Z,1.35
2019-05-25T16:49:07.670Z,1.00
2019-05-25T16:51:36.629Z,1.02
2019-05-25T16:54:05.468Z,1.12
2019-05-25T16:56:34.302Z,1.22
2019-05-25T16:59:04.670Z,0.80
2019-05-25T17:01:47.535Z,0.93
2019-05-25T17:04:04.443Z,1.35
2019-05-25T17:06:33.228Z,1.00
2019-05-25T17:09:02.109Z,0.95
2019-05-25T17:11:31.362Z,1.20
2019-05-25T17:14:00.261Z,1.50
2019-05-25T17:16:29.040Z,1.37
2019-05-25T17:18:58.867Z,1.20
2019-05-25T17:21:27.913Z,1.62
2019-05-25T17:23:56.883Z,1.30
2019-05-25T17:26:27.159Z,0.82
2019-05-25T17:28:56.884Z,0.90
2019-05-25T17:31:27.136Z,1.00
2019-05-25T17:33:56.052Z,1.20
2019-05-25T17:36:24.950Z,1.55
2019-05-25T17:38:53.863Z,1.37
2019-05-25T17:41:22.687Z,2.98
2019-05-25T17:43:51.687Z,1.30
2019-05-25T17:46:22.488Z,2.30
2019-05-25T17:48:52.282Z,0.98
2019-05-25T17:51:21.264Z,1.30
2019-05-25T17:53:53.479Z,2.00
2019-05-25T17:56:22.247Z,1.20
2019-05-25T17:58:51.199Z,1.10
2019-05-25T18:01:20.207Z,1.35
2019-05-25T18:04:06.563Z,1.27
2019-05-25T18:06:24.121Z,1.55
2019-05-25T18:08:52.978Z,1.60
2019-05-25T18:11:21.829Z,2.47
2019-05-25T18:13:50.648Z,2.00
2019-05-25T18:16:19.594Z,1.25
2019-05-25T18:18:48.550Z,2.10
2019-05-25T18:21:17.411Z,1.72
2019-05-25T18:23:46.668Z,1.72
2019-05-25T18:26:15.499Z,2.10
2019-05-25T18:28:46.423Z,1.80
2019-05-25T18:31:16.799Z,1.85
2019-05-25T18:33:45.622Z,1.85
2019-05-25T18:36:14.405Z,4.50
2019-05-25T18:38:44.805Z,4.37
2019-05-25T18:41:13.533Z,1.85
2019-05-25T18:43:42.396Z,1.50
2019-05-25T18:46:11.238Z,1.37
2019-05-25T18:48:43.603Z,1.77
2019-05-25T18:51:12.503Z,1.35
2019-05-25T18:53:41.376Z,2.58
2019-05-25T18:56:10.221Z,1.67
2019-05-25T18:58:39.128Z,2.22
2019-05-25T19:01:08.070Z,0.90
2019-05-25T19:03:38.496Z,1.62
2019-05-25T19:06:10.309Z,1.32
2019-05-25T19:08:39.137Z,1.30
2019-05-25T19:11:08.067Z,1.32
2019-05-25T19:13:36.927Z,1.50
2019-05-25T19:16:05.769Z,1.87
2019-05-25T19:18:34.649Z,1.60
2019-05-25T19:21:03.496Z,1.55
2019-05-25T19:23:32.272Z,1.25
2019-05-25T19:26:01.031Z,1.65
2019-05-25T19:28:29.907Z,1.30
2019-05-25T19:30:58.768Z,1.62
2019-05-25T19:33:27.652Z,2.15
2019-05-25T19:35:56.489Z,0.95
2019-05-25T19:38:25.325Z,1.22
2019-05-25T19:40:54.124Z,1.40
2019-05-25T19:43:22.955Z,1.02
2019-05-25T19:45:51.794Z,1.22
2019-05-25T19:48:20.857Z,1.00
2019-05-25T19:50:49.743Z,1.20
2019-05-25T19:53:18.736Z,1.22
2019-05-25T19:55:47.574Z,1.05
2019-05-25T19:58:16.364Z,1.05
2019-05-25T20:00:45.199Z,1.05
2019-05-25T20:03:15.142Z,1.10
2019-05-25T20:05:47.868Z,0.90
2019-05-25T20:08:18.756Z,1.07
2019-05-25T20:10:50.549Z,2.20
2019-05-25T20:13:19.601Z,1.27
2019-05-25T20:15:48.471Z,2.08
2019-05-25T20:18:17.360Z,1.98
2019-05-25T20:20:47.807Z,1.30
2019-05-25T20:23:19.779Z,1.75
2019-05-25T20:25:50.565Z,1.67
2019-05-25T20:28:19.339Z,1.37
2019-05-25T20:30:48.191Z,1.72
2019-05-25T20:33:26.901Z,1.77
2019-05-25T20:35:49.016Z,2.37
2019-05-25T20:38:18.983Z,2.10
2019-05-25T20:40:47.743Z,2.42
2019-05-25T20:43:16.575Z,2.00
2019-05-25T20:45:45.471Z,2.42
2019-05-25T20:48:14.241Z,1.60
2019-05-25T20:50:43.523Z,1.67
2019-05-25T20:53:12.341Z,1.35
2019-05-25T20:55:41.184Z,1.60
2019-05-25T20:58:10.042Z,1.92
2019-05-25T21:00:38.927Z,1.40
2019-05-25T21:03:07.786Z,1.57
2019-05-25T21:05:49.870Z,1.57
2019-05-25T21:08:07.070Z,1.70
2019-05-25T21:10:35.937Z,2.17
2019-05-25T21:13:04.763Z,1.57
2019-05-25T21:15:33.570Z,1.62
2019-05-25T21:18:04.187Z,1.40
2019-05-25T21:20:32.952Z,1.52
2019-05-25T21:23:03.115Z,1.50
2019-05-25T21:25:36.365Z,1.60
2019-05-25T21:28:08.408Z,1.50
2019-05-25T21:30:37.283Z,1.67
2019-05-25T21:33:06.095Z,1.72
2019-05-25T21:35:34.939Z,1.25
2019-05-25T21:38:03.799Z,1.80
2019-05-25T21:40:32.567Z,1.60
2019-05-25T21:43:01.524Z,1.52
2019-05-25T21:45:30.349Z,1.47
2019-05-25T21:47:59.223Z,1.62
2019-05-25T21:50:27.989Z,1.00
2019-05-25T21:52:56.836Z,1.35
2019-05-25T21:55:25.686Z,1.60
2019-05-25T21:57:54.533Z,2.08
2019-05-25T22:00:25.945Z,1.47
2019-05-25T22:02:57.838Z,1.67
2019-05-25T22:05:30.435Z,1.67
2019-05-25T22:07:57.871Z,2.65
2019-05-25T22:10:27.046Z,1.77
2019-05-25T22:12:56.023Z,1.92
2019-05-25T22:15:24.897Z,1.82
2019-05-25T22:17:53.746Z,1.47
2019-05-25T22:20:22.667Z,1.52
2019-05-25T22:22:51.420Z,1.60
2019-05-25T22:25:20.259Z,1.65
2019-05-25T22:27:49.176Z,1.80
2019-05-25T22:30:18.415Z,1.55
2019-05-25T22:32:47.233Z,1.85
2019-05-25T22:35:16.091Z,1.27
2019-05-25T22:37:44.858Z,1.50
2019-05-25T22:40:14.839Z,1.80
2019-05-25T22:42:43.660Z,1.92
2019-05-25T22:45:13.126Z,1.45
2019-05-25T22:47:41.884Z,1.72
2019-05-25T22:50:12.511Z,1.80
2019-05-25T22:52:41.284Z,2.85
2019-05-25T22:55:10.739Z,1.40
2019-05-25T22:57:39.585Z,2.87
2019-05-25T23:00:12.089Z,1.75
2019-05-25T23:02:41.023Z,1.80
2019-05-25T23:05:10.091Z,2.20
2019-05-25T23:07:38.928Z,1.80
2019-05-25T23:10:10.225Z,2.70
2019-05-25T23:12:39.063Z,3.25
2019-05-25T23:15:08.687Z,2.30
2019-05-25T23:17:37.524Z,2.65
2019-05-25T23:20:07.962Z,2.52
2019-05-25T23:22:36.794Z,2.37
2019-05-25T23:25:05.796Z,2.85
2019-05-25T23:27:34.604Z,2.50
2019-05-25T23:30:03.467Z,2.87
2019-05-25T23:32:32.242Z,2.27
2019-05-25T23:35:01.013Z,2.42
2019-05-25T23:37:29.792Z,2.47
2019-05-25T23:39:58.634Z,2.90
2019-05-25T23:42:27.417Z,2.72
2019-05-25T23:44:56.267Z,3.17
2019-05-25T23:47:25.100Z,3.10
2019-05-25T23:49:53.967Z,3.70
2019-05-25T23:52:22.811Z,2.90
2019-05-25T23:54:51.595Z,2.95
2019-05-25T23:57:20.469Z,3.00
2019-05-25T23:59:49.299Z,3.60
